Terminal Aerodrome Forecast
Issued by NWS

Home | Current Version | Previous Version | Text Only | Print | Product List | Glossary On
Versions: 1 2 3 4 5 6 7 8 9 10 11 12 13 14 15
000
FTUS42 TJSJ 241746 AAA
TAFNCM
TAF AMD
TNCM 241746Z 2418/2518 VRB25G35KT 5SM -SHRA SCT015 BKN025 OVC060
     FM242130 13015G25KT P6SM SHRA VCTS SCT020CB BKN040 OVC060
     FM251130 11012KT P6SM VCSH SCT020 SCT040=

USA.gov is the U.S. government's official web portal to all federal, state and local government web resources and services.